Wetter

ACHTUNG: Die hier angeboten Wetter-Informationen sind nicht geeicht und dürfen für Flugvorbereitungen nicht verwendet werden
ACG Flugwetter
METAR/TAF LOXZ

LOXZ 221850Z VRB03KT 9999 FEW060 BKN100 20/16 Q1019

TAF LOXZ 181415Z 1812/1824 CNL

METAR/TAF LOXA

LOXA 100820Z VRB02KT 50KM FEW120AC SCT300CI 17/13 Q1021 NOSIG RMK SCT

TAF TAF LOXA 090515Z 0906/0918 VRB03KT 0500 FG SCT060 BECMG 0906/0908 9999 NSW FEW060 BECMG 0909/0911 04007KT TEMPO 0910/0915 SCT060 BKN100

METAR/TAF LOWG 

LOWG 221920Z 32004KT 230V010 9999 -SHRA FEW022 SCT060 21/19 Q1017 TEMPO TL1950 36007KT SHRA

TAF AMD TAF AMD LOWG 221941Z 2219/2318 34005KT 9999 FEW050 TX28/2312Z TN18/2304Z TEMPO 2219/2221 -SHRA TEMPO 2316/2318 SHRA

(Information der letzten Stunde)

(Information der letzten Stunde)

Dichtehöhe (in LOGT)
Temperatur / Windchill der letzten 10 Tage

Ext. Links zu Wetterdiensten

ALDIS

Öster.- Unwetterzentrale